createdAt,value
2022-12-31T00:01:07.445Z,56.08
2022-12-31T00:03:35.766Z,53.65
2022-12-31T00:06:22.569Z,59.92
2022-12-31T00:08:51.361Z,58.70
2022-12-31T00:11:20.067Z,60.28
2022-12-31T00:13:50.355Z,59.70
2022-12-31T00:16:21.776Z,56.75
2022-12-31T00:18:53.203Z,55.88
2022-12-31T00:21:22.465Z,54.40
2022-12-31T00:23:50.709Z,52.38
2022-12-31T00:26:21.462Z,50.80
2022-12-31T00:28:49.275Z,59.28
2022-12-31T00:31:21.022Z,55.80
2022-12-31T00:33:49.081Z,54.85
2022-12-31T00:36:25.664Z,49.72
2022-12-31T00:38:55.721Z,57.85
2022-12-31T00:41:24.740Z,55.50
2022-12-31T00:43:53.062Z,61.10
2022-12-31T00:46:21.397Z,55.55
2022-12-31T00:48:49.587Z,59.50
2022-12-31T00:51:19.900Z,54.85
2022-12-31T00:53:47.967Z,50.05
2022-12-31T00:56:19.084Z,55.92
2022-12-31T00:58:47.514Z,53.33
2022-12-31T01:01:18.157Z,55.97
2022-12-31T01:03:47.154Z,53.63
2022-12-31T01:06:15.400Z,57.33
2022-12-31T01:08:43.532Z,54.90
2022-12-31T01:11:19.803Z,54.40
2022-12-31T01:13:50.229Z,54.15
2022-12-31T01:16:20.029Z,50.65
2022-12-31T01:18:47.854Z,55.30
2022-12-31T01:21:16.231Z,54.17
2022-12-31T01:23:44.295Z,50.30
2022-12-31T01:26:14.250Z,52.13
2022-12-31T01:28:42.908Z,53.80
2022-12-31T01:31:13.846Z,54.67
2022-12-31T01:33:43.150Z,54.90
2022-12-31T01:36:14.063Z,54.70
2022-12-31T01:38:42.446Z,56.47
2022-12-31T01:41:20.036Z,54.88
2022-12-31T01:43:50.772Z,51.90
2022-12-31T01:46:39.212Z,50.03
2022-12-31T01:49:35.419Z,52.13
2022-12-31T01:52:11.297Z,58.25
2022-12-31T01:54:44.851Z,57.80
2022-12-31T01:57:14.480Z,54.90
2022-12-31T01:59:43.597Z,58.13
2022-12-31T02:02:13.015Z,51.85
2022-12-31T02:04:41.684Z,57.90
2022-12-31T02:07:11.397Z,58.90
2022-12-31T02:09:41.962Z,59.72
2022-12-31T02:12:11.085Z,57.05
2022-12-31T02:14:46.381Z,58.47
2022-12-31T02:17:23.040Z,51.65
2022-12-31T02:20:12.115Z,57.90
2022-12-31T02:22:40.109Z,50.88
2022-12-31T02:25:17.167Z,54.60
2022-12-31T02:27:51.207Z,58.45
2022-12-31T02:30:23.875Z,59.25
2022-12-31T02:33:09.528Z,55.50
2022-12-31T02:35:52.127Z,61.00
2022-12-31T02:38:27.844Z,58.58
2022-12-31T02:40:56.896Z,60.38
2022-12-31T02:43:25.465Z,62.25
2022-12-31T02:46:21.772Z,60.92
2022-12-31T02:48:59.230Z,58.35
2022-12-31T02:51:38.924Z,58.20
2022-12-31T02:54:25.921Z,58.15
2022-12-31T02:56:59.682Z,53.38
2022-12-31T03:00:16.457Z,57.15
2022-12-31T03:02:47.270Z,52.15
2022-12-31T03:05:17.594Z,54.20
2022-12-31T03:07:45.745Z,51.58
2022-12-31T03:10:13.851Z,50.60
2022-12-31T03:12:49.628Z,53.78
2022-12-31T03:15:22.563Z,62.30
2022-12-31T03:18:06.689Z,57.13
2022-12-31T03:20:55.172Z,60.25
2022-12-31T03:23:30.129Z,66.18
2022-12-31T03:25:59.900Z,71.15
2022-12-31T03:28:29.911Z,59.85
2022-12-31T03:31:01.416Z,66.93
2022-12-31T03:33:35.319Z,71.78
2022-12-31T03:36:07.752Z,64.95
2022-12-31T03:38:36.038Z,60.78
2022-12-31T03:41:06.260Z,66.63
2022-12-31T03:43:34.187Z,72.40
2022-12-31T03:46:02.293Z,75.13
2022-12-31T03:48:30.157Z,61.50
2022-12-31T03:50:57.898Z,89.30
2022-12-31T03:53:25.689Z,63.05
2022-12-31T03:55:54.299Z,55.63
2022-12-31T03:58:22.826Z,54.72
2022-12-31T04:00:51.659Z,55.45
2022-12-31T04:03:20.120Z,52.90
2022-12-31T04:05:55.676Z,51.63
2022-12-31T04:08:24.134Z,51.20
2022-12-31T04:10:52.079Z,51.90
2022-12-31T04:13:19.795Z,53.40
2022-12-31T04:15:50.925Z,49.50
2022-12-31T04:18:18.889Z,50.97
2022-12-31T04:20:46.900Z,45.42
2022-12-31T04:23:17.678Z,48.03
2022-12-31T04:25:47.026Z,54.72
2022-12-31T04:28:15.028Z,47.38
2022-12-31T04:30:44.193Z,50.03
2022-12-31T04:33:12.110Z,49.00
2022-12-31T04:35:39.935Z,50.47
2022-12-31T04:38:07.893Z,46.03
2022-12-31T04:40:35.910Z,50.85
2022-12-31T04:43:03.892Z,51.28
2022-12-31T04:45:32.079Z,49.80
2022-12-31T04:48:00.568Z,47.28
2022-12-31T04:50:28.869Z,53.78
2022-12-31T04:52:56.930Z,51.78
2022-12-31T04:55:24.823Z,50.97
2022-12-31T04:57:52.837Z,49.75
2022-12-31T05:00:21.048Z,52.05
2022-12-31T05:02:49.116Z,47.90
2022-12-31T05:05:17.266Z,45.17
2022-12-31T05:07:45.130Z,52.13
2022-12-31T05:10:14.258Z,51.80
2022-12-31T05:12:42.112Z,51.75
2022-12-31T05:15:10.367Z,51.95
2022-12-31T05:17:38.269Z,49.67
2022-12-31T05:20:06.874Z,50.42
2022-12-31T05:22:34.834Z,50.30
2022-12-31T05:25:02.766Z,51.90
2022-12-31T05:27:33.590Z,48.33
2022-12-31T05:30:01.479Z,56.22
2022-12-31T05:32:29.379Z,52.60
2022-12-31T05:34:59.977Z,52.10
2022-12-31T05:37:29.510Z,54.20
2022-12-31T05:39:58.664Z,52.72
2022-12-31T05:42:27.125Z,58.45
2022-12-31T05:44:55.559Z,51.20
2022-12-31T05:47:24.163Z,53.05
2022-12-31T05:49:52.330Z,54.67
2022-12-31T05:52:20.496Z,51.55
2022-12-31T05:54:48.342Z,51.00
2022-12-31T05:57:16.424Z,45.22
2022-12-31T05:59:44.571Z,46.00
2022-12-31T06:02:12.445Z,49.05
2022-12-31T06:04:40.197Z,42.78
2022-12-31T06:07:08.300Z,47.35
2022-12-31T06:09:36.444Z,50.17
2022-12-31T06:12:06.683Z,47.25
2022-12-31T06:14:35.123Z,45.13
2022-12-31T06:17:02.911Z,43.42
2022-12-31T06:19:31.167Z,38.17
2022-12-31T06:21:59.131Z,41.17
2022-12-31T06:24:26.973Z,42.55
2022-12-31T06:26:54.521Z,47.75
2022-12-31T06:29:22.576Z,42.92
2022-12-31T06:31:50.621Z,45.97
2022-12-31T06:34:19.798Z,39.38
2022-12-31T06:36:48.260Z,45.88
2022-12-31T06:39:16.083Z,43.15
2022-12-31T06:41:44.140Z,49.95
2022-12-31T06:44:12.517Z,48.92
2022-12-31T06:46:40.882Z,52.10
2022-12-31T06:49:08.815Z,53.72
2022-12-31T06:51:36.573Z,58.03
2022-12-31T06:54:04.606Z,49.60
2022-12-31T06:56:34.776Z,63.30
2022-12-31T06:59:04.414Z,57.17
2022-12-31T07:01:58.026Z,62.83
2022-12-31T07:05:08.098Z,53.08
2022-12-31T07:07:54.412Z,60.17
2022-12-31T07:10:53.642Z,61.58
2022-12-31T07:13:45.459Z,56.53
2022-12-31T07:16:31.173Z,62.25
2022-12-31T07:19:02.013Z,54.92
2022-12-31T07:21:38.502Z,60.58
2022-12-31T07:24:08.218Z,58.17
2022-12-31T07:27:01.207Z,56.30
2022-12-31T07:29:50.090Z,52.35
2022-12-31T07:32:30.244Z,54.88
2022-12-31T07:34:59.081Z,55.00
2022-12-31T07:37:39.737Z,58.67
2022-12-31T07:40:29.218Z,61.20
2022-12-31T07:43:07.541Z,58.90
2022-12-31T07:45:43.110Z,56.97
2022-12-31T07:48:23.145Z,55.95
2022-12-31T07:50:52.572Z,46.85
2022-12-31T07:53:21.627Z,51.70
2022-12-31T07:55:57.575Z,51.33
2022-12-31T07:58:34.452Z,57.97
2022-12-31T08:01:03.913Z,62.00
2022-12-31T08:03:46.895Z,57.15
2022-12-31T08:06:17.428Z,55.93
2022-12-31T08:09:01.626Z,55.72
2022-12-31T08:11:49.671Z,59.58
2022-12-31T08:14:20.056Z,56.58
2022-12-31T08:16:48.728Z,62.83
2022-12-31T08:19:30.085Z,55.63
2022-12-31T08:22:15.267Z,53.13
2022-12-31T08:25:04.208Z,57.35
2022-12-31T08:28:03.087Z,56.50
2022-12-31T08:31:18.407Z,52.42
2022-12-31T08:34:11.362Z,59.92
2022-12-31T08:37:06.743Z,50.83
2022-12-31T08:40:02.862Z,49.80
2022-12-31T08:43:12.242Z,54.10
2022-12-31T08:45:46.614Z,45.20
2022-12-31T08:48:23.897Z,49.75
2022-12-31T08:50:52.194Z,53.20
2022-12-31T08:53:20.593Z,51.58
2022-12-31T08:55:58.385Z,46.88
2022-12-31T08:58:47.188Z,49.45
2022-12-31T09:01:21.866Z,48.40
2022-12-31T09:04:16.037Z,50.35
2022-12-31T09:07:12.026Z,53.30
2022-12-31T09:09:39.986Z,57.80
2022-12-31T09:12:21.769Z,56.10
2022-12-31T09:15:15.473Z,48.88
2022-12-31T09:17:51.062Z,58.72
2022-12-31T09:20:24.957Z,56.92
2022-12-31T09:22:57.172Z,49.15
2022-12-31T09:25:34.984Z,50.03
2022-12-31T09:28:10.291Z,54.65
2022-12-31T09:30:54.390Z,55.33
2022-12-31T09:35:59.074Z,53.10
2022-12-31T09:38:35.393Z,53.80
2022-12-31T09:41:14.653Z,58.50
2022-12-31T09:44:15.333Z,52.85
2022-12-31T09:47:01.643Z,53.45
2022-12-31T09:50:06.780Z,49.05
2022-12-31T09:53:16.234Z,52.00
2022-12-31T09:56:09.440Z,49.10
2022-12-31T09:59:03.085Z,46.53
2022-12-31T10:01:49.846Z,48.95
2022-12-31T10:04:35.268Z,48.25
2022-12-31T10:07:13.153Z,46.30
2022-12-31T10:10:05.512Z,45.20
2022-12-31T10:13:10.351Z,50.50
2022-12-31T10:16:09.953Z,52.05
2022-12-31T10:19:25.193Z,45.08
2022-12-31T10:22:24.014Z,54.78
2022-12-31T10:24:59.490Z,47.40
2022-12-31T10:28:05.913Z,48.13
2022-12-31T10:30:35.842Z,50.55
2022-12-31T10:33:41.221Z,47.40
2022-12-31T10:36:30.285Z,100.88
2022-12-31T10:39:25.504Z,55.70
2022-12-31T10:42:22.024Z,56.10
2022-12-31T10:45:14.587Z,69.93
2022-12-31T10:48:00.362Z,56.67
2022-12-31T10:50:46.616Z,42.05
2022-12-31T10:53:22.691Z,60.45
2022-12-31T10:56:21.557Z,37.42
2022-12-31T10:58:49.359Z,39.05
2022-12-31T11:01:41.293Z,47.28
2022-12-31T11:04:29.854Z,41.15
2022-12-31T11:07:15.925Z,44.42
2022-12-31T11:10:14.013Z,45.78
2022-12-31T11:13:10.726Z,44.60
2022-12-31T11:15:50.503Z,42.58
2022-12-31T11:18:35.101Z,44.13
2022-12-31T11:21:34.272Z,40.40
2022-12-31T11:24:25.377Z,38.75
2022-12-31T11:27:26.894Z,37.88
2022-12-31T11:30:04.713Z,49.25
2022-12-31T11:32:52.481Z,39.70
2022-12-31T11:35:26.012Z,35.13
2022-12-31T11:38:01.109Z,44.33
2022-12-31T11:40:54.077Z,36.70
2022-12-31T11:43:53.039Z,34.92
2022-12-31T11:46:45.238Z,43.53
2022-12-31T11:49:31.166Z,33.58
2022-12-31T11:52:16.064Z,42.97
2022-12-31T11:55:24.554Z,38.47
2022-12-31T11:57:52.736Z,40.08
2022-12-31T12:00:25.000Z,29.67
2022-12-31T12:03:01.676Z,34.13
2022-12-31T12:05:30.151Z,35.58
2022-12-31T12:07:58.078Z,31.42
2022-12-31T12:10:37.273Z,34.88
2022-12-31T12:13:17.662Z,27.40
2022-12-31T12:15:48.952Z,31.15
2022-12-31T12:18:57.086Z,35.90
2022-12-31T12:21:25.665Z,35.30
2022-12-31T12:24:25.129Z,36.38
2022-12-31T12:26:53.870Z,31.23
2022-12-31T12:29:24.520Z,38.80
2022-12-31T12:32:05.196Z,37.47
2022-12-31T12:34:40.911Z,45.50
2022-12-31T12:37:40.349Z,37.50
2022-12-31T12:40:20.499Z,36.45
2022-12-31T12:42:49.790Z,31.40
2022-12-31T12:45:20.497Z,32.90
2022-12-31T12:47:54.667Z,27.98
2022-12-31T12:50:26.829Z,31.35
2022-12-31T12:53:24.353Z,32.13
2022-12-31T12:56:07.249Z,29.40
2022-12-31T12:59:00.692Z,34.28
2022-12-31T13:01:38.294Z,30.48
2022-12-31T13:07:31.958Z,33.85
2022-12-31T13:10:26.988Z,31.63
2022-12-31T13:13:27.806Z,33.08
2022-12-31T13:15:58.733Z,31.20
2022-12-31T13:18:51.403Z,34.45
2022-12-31T13:21:22.505Z,37.88
2022-12-31T13:23:57.124Z,37.60
2022-12-31T13:26:32.879Z,37.65
2022-12-31T13:29:03.787Z,36.75
2022-12-31T13:31:37.831Z,32.35
2022-12-31T13:34:21.943Z,39.30
2022-12-31T13:36:53.046Z,40.67
2022-12-31T13:39:32.410Z,33.58
2022-12-31T13:42:21.443Z,39.80
2022-12-31T13:45:04.102Z,40.20
2022-12-31T13:47:35.569Z,40.70
2022-12-31T13:50:33.949Z,35.13
2022-12-31T13:53:26.783Z,35.50
2022-12-31T13:56:03.807Z,40.35
2022-12-31T13:59:05.331Z,39.00
2022-12-31T14:01:59.380Z,39.78
2022-12-31T14:07:14.324Z,46.17
2022-12-31T14:09:42.615Z,47.20
2022-12-31T14:12:25.272Z,42.28
2022-12-31T14:15:13.376Z,39.70
2022-12-31T14:18:01.416Z,41.85
2022-12-31T14:20:44.126Z,39.00
2022-12-31T14:23:17.559Z,54.22
2022-12-31T14:25:51.583Z,45.95
2022-12-31T14:28:26.068Z,61.63
2022-12-31T14:31:02.669Z,55.72
2022-12-31T14:33:45.040Z,52.20
2022-12-31T14:36:34.194Z,45.13
2022-12-31T14:39:34.308Z,45.47
2022-12-31T14:42:27.934Z,44.55
2022-12-31T14:45:07.408Z,48.80
2022-12-31T14:48:21.498Z,41.75
2022-12-31T14:50:50.242Z,51.40
2022-12-31T14:53:23.572Z,40.83
2022-12-31T14:56:01.472Z,48.60
2022-12-31T14:58:34.965Z,45.97
2022-12-31T15:01:09.002Z,53.42
2022-12-31T15:03:45.828Z,46.60
2022-12-31T15:06:23.011Z,48.22
2022-12-31T15:09:07.505Z,49.88
2022-12-31T15:11:38.654Z,49.58
2022-12-31T15:14:41.523Z,58.25
2022-12-31T15:17:30.545Z,45.38
2022-12-31T15:20:19.385Z,46.53
2022-12-31T15:22:49.828Z,49.17
2022-12-31T15:25:40.090Z,52.95
2022-12-31T15:28:23.545Z,47.58
2022-12-31T15:30:52.397Z,51.28
2022-12-31T15:33:31.109Z,45.47
2022-12-31T15:36:20.992Z,49.65
2022-12-31T15:38:49.925Z,46.67
2022-12-31T15:41:26.816Z,47.97
2022-12-31T15:44:13.468Z,50.00
2022-12-31T15:46:43.282Z,58.13
2022-12-31T15:49:18.199Z,54.20
2022-12-31T15:51:55.023Z,54.05
2022-12-31T15:54:36.652Z,58.20
2022-12-31T15:57:09.702Z,55.58
2022-12-31T15:59:39.880Z,54.58
2022-12-31T16:02:27.891Z,52.53
2022-12-31T16:04:56.219Z,55.78
2022-12-31T16:07:26.703Z,59.55
2022-12-31T16:09:59.705Z,55.88
2022-12-31T16:12:34.393Z,53.13
2022-12-31T16:15:05.245Z,59.65
2022-12-31T16:17:36.812Z,59.38
2022-12-31T16:20:25.971Z,51.92
2022-12-31T16:22:57.631Z,52.42
2022-12-31T16:25:32.322Z,46.78
2022-12-31T16:28:02.229Z,53.45
2022-12-31T16:30:37.477Z,49.47
2022-12-31T16:33:11.504Z,52.22
2022-12-31T16:35:39.125Z,55.88
2022-12-31T16:38:17.801Z,55.53
2022-12-31T16:41:03.991Z,55.13
2022-12-31T16:43:40.355Z,50.58
2022-12-31T16:46:27.434Z,51.33
2022-12-31T16:49:14.165Z,47.53
2022-12-31T16:51:42.258Z,51.25
2022-12-31T16:54:19.889Z,49.85
2022-12-31T16:56:48.191Z,51.67
2022-12-31T17:02:19.683Z,50.38
2022-12-31T17:19:49.185Z,55.65
2022-12-31T17:22:29.812Z,54.35
2022-12-31T17:27:34.643Z,51.50
2022-12-31T17:30:32.807Z,49.75
2022-12-31T17:33:12.379Z,57.40
2022-12-31T17:35:42.735Z,49.10
2022-12-31T17:38:22.868Z,52.40
2022-12-31T17:40:52.413Z,52.72
2022-12-31T17:43:23.273Z,57.60
2022-12-31T17:45:52.817Z,55.72
2022-12-31T17:48:23.164Z,56.08
2022-12-31T17:50:53.609Z,51.03
2022-12-31T17:53:21.563Z,54.00
2022-12-31T17:55:52.603Z,56.30
2022-12-31T17:58:29.262Z,57.08
2022-12-31T18:00:58.831Z,60.80
2022-12-31T18:03:26.955Z,63.22
2022-12-31T18:05:54.965Z,63.30
2022-12-31T18:08:23.389Z,59.20
2022-12-31T18:10:52.656Z,62.45
2022-12-31T18:13:25.447Z,57.83
2022-12-31T18:15:54.006Z,51.33
2022-12-31T18:18:30.659Z,52.67
2022-12-31T18:21:07.540Z,58.28
2022-12-31T18:23:42.319Z,53.38
2022-12-31T18:26:18.222Z,49.20
2022-12-31T18:28:47.123Z,59.90
2022-12-31T18:31:28.497Z,57.67
2022-12-31T18:33:58.742Z,56.33
2022-12-31T18:36:28.314Z,56.20
2022-12-31T18:38:56.461Z,60.78
2022-12-31T18:41:30.796Z,61.22
2022-12-31T18:43:58.635Z,58.35
2022-12-31T18:46:27.735Z,58.05
2022-12-31T18:48:55.572Z,59.28
2022-12-31T18:51:31.326Z,55.38
2022-12-31T18:54:01.257Z,52.10
2022-12-31T18:56:29.580Z,55.38
2022-12-31T18:58:57.570Z,50.28
2022-12-31T19:01:37.601Z,55.63
2022-12-31T19:04:14.064Z,51.60
2022-12-31T19:06:42.766Z,54.13
2022-12-31T19:09:30.951Z,50.47
2022-12-31T19:11:59.266Z,58.28
2022-12-31T19:14:27.426Z,58.58
2022-12-31T19:16:57.061Z,59.38
2022-12-31T19:19:25.381Z,52.60
2022-12-31T19:21:54.658Z,48.42
2022-12-31T19:24:26.833Z,51.83
2022-12-31T19:26:55.800Z,67.07
2022-12-31T19:29:26.301Z,57.58
2022-12-31T19:31:56.829Z,70.10
2022-12-31T19:34:25.309Z,62.35
2022-12-31T19:36:53.319Z,58.15
2022-12-31T19:39:21.601Z,60.95
2022-12-31T19:41:56.542Z,69.30
2022-12-31T19:44:26.815Z,68.18
2022-12-31T19:46:55.087Z,59.28
2022-12-31T19:49:23.135Z,56.33
2022-12-31T19:51:51.353Z,52.65
2022-12-31T19:54:19.364Z,57.90
2022-12-31T19:56:47.182Z,50.70
2022-12-31T19:59:15.218Z,52.03
2022-12-31T20:01:43.176Z,52.70
2022-12-31T20:04:10.821Z,60.10
2022-12-31T20:06:38.980Z,57.45
2022-12-31T20:09:07.094Z,56.05
2022-12-31T20:11:35.362Z,58.03
2022-12-31T20:14:03.467Z,54.00
2022-12-31T20:16:32.147Z,59.50
2022-12-31T20:19:00.287Z,56.15
2022-12-31T20:21:29.672Z,55.28
2022-12-31T20:23:57.658Z,53.90
2022-12-31T20:26:26.397Z,55.38
2022-12-31T20:28:54.378Z,50.50
2022-12-31T20:31:25.116Z,54.15
2022-12-31T20:33:54.386Z,62.60
2022-12-31T20:36:23.351Z,57.33
2022-12-31T20:38:51.294Z,63.47
2022-12-31T20:41:21.073Z,59.58
2022-12-31T20:43:49.716Z,64.57
2022-12-31T20:46:29.953Z,63.10
2022-12-31T20:49:02.229Z,60.08
2022-12-31T20:51:33.511Z,61.20
2022-12-31T20:54:07.169Z,64.47
2022-12-31T20:59:05.542Z,69.05
2022-12-31T21:01:55.507Z,70.32
2022-12-31T21:04:22.395Z,69.72
2022-12-31T21:06:52.435Z,67.45
2022-12-31T21:09:20.508Z,69.13
2022-12-31T21:12:07.216Z,73.03
2022-12-31T21:14:39.848Z,61.85
2022-12-31T21:17:10.859Z,72.85
2022-12-31T21:19:42.113Z,72.93
2022-12-31T21:22:10.069Z,76.90
2022-12-31T21:24:39.200Z,68.72
2022-12-31T21:27:07.551Z,71.55
2022-12-31T21:29:45.083Z,60.70
2022-12-31T21:32:24.998Z,64.85
2022-12-31T21:35:31.118Z,66.30
2022-12-31T21:37:58.449Z,65.32
2022-12-31T21:40:29.772Z,61.42
2022-12-31T21:42:58.298Z,60.22
2022-12-31T21:45:26.194Z,113.90
2022-12-31T21:48:12.356Z,64.97
2022-12-31T21:50:40.423Z,54.40
2022-12-31T21:53:08.319Z,60.67
2022-12-31T21:55:57.465Z,59.13
2022-12-31T21:58:27.722Z,54.63
2022-12-31T22:01:15.619Z,55.10
2022-12-31T22:03:44.017Z,60.28
2022-12-31T22:06:16.396Z,63.80
2022-12-31T22:08:45.749Z,61.72
2022-12-31T22:11:14.693Z,58.08
2022-12-31T22:13:42.742Z,61.75
2022-12-31T22:16:13.197Z,60.20
2022-12-31T22:18:43.030Z,58.05
2022-12-31T22:21:19.378Z,62.50
2022-12-31T22:23:52.596Z,64.50
2022-12-31T22:26:23.736Z,67.13
2022-12-31T22:28:52.579Z,60.15
2022-12-31T22:31:24.549Z,57.92
2022-12-31T22:33:52.927Z,67.82
2022-12-31T22:36:22.602Z,54.13
2022-12-31T22:38:54.845Z,59.47
2022-12-31T22:41:24.061Z,65.45
2022-12-31T22:44:02.246Z,80.57
2022-12-31T22:46:31.885Z,71.47
2022-12-31T22:49:00.383Z,70.63
2022-12-31T22:51:55.251Z,65.78
2022-12-31T22:54:17.651Z,67.20
2022-12-31T22:56:45.527Z,71.72
2022-12-31T22:59:13.882Z,69.10
2022-12-31T23:01:41.864Z,65.93
2022-12-31T23:04:10.241Z,64.45
2022-12-31T23:06:43.705Z,287.30
2022-12-31T23:09:32.199Z,160.98
2022-12-31T23:12:00.909Z,628.40
2022-12-31T23:14:47.189Z,171.95
2022-12-31T23:17:43.459Z,94.95
2022-12-31T23:20:33.705Z,111.35
2022-12-31T23:23:11.574Z,139.80
2022-12-31T23:25:44.367Z,102.88
2022-12-31T23:28:17.988Z,97.68
2022-12-31T23:30:45.874Z,91.57
2022-12-31T23:33:17.201Z,102.32
2022-12-31T23:35:45.624Z,176.20
2022-12-31T23:38:16.659Z,186.48
2022-12-31T23:40:45.362Z,212.35
2022-12-31T23:43:20.883Z,226.02
2022-12-31T23:45:52.699Z,212.38
2022-12-31T23:48:20.749Z,210.25
2022-12-31T23:50:53.581Z,221.57
2022-12-31T23:53:25.676Z,228.55
2022-12-31T23:55:53.389Z,244.38
2022-12-31T23:58:21.992Z,252.68
